createdAt,value
2023-02-27T00:02:13.195Z,16.73
2023-02-27T00:04:41.211Z,16.73
2023-02-27T00:07:09.730Z,16.73
2023-02-27T00:09:38.379Z,16.70
2023-02-27T00:12:08.434Z,16.67
2023-02-27T00:14:36.641Z,16.66
2023-02-27T00:17:05.223Z,16.64
2023-02-27T00:19:33.575Z,16.65
2023-02-27T00:22:02.347Z,16.62
2023-02-27T00:24:30.590Z,16.61
2023-02-27T00:26:59.184Z,16.59
2023-02-27T00:29:27.390Z,16.58
2023-02-27T00:31:56.022Z,16.53
2023-02-27T00:34:26.027Z,16.53
2023-02-27T00:36:54.796Z,16.55
2023-02-27T00:39:22.992Z,16.51
2023-02-27T00:41:51.877Z,16.51
2023-02-27T00:44:20.247Z,16.51
2023-02-27T00:46:48.849Z,16.49
2023-02-27T00:49:17.181Z,16.46
2023-02-27T00:51:47.810Z,16.42
2023-02-27T00:54:16.190Z,16.44
2023-02-27T00:56:45.185Z,16.43
2023-02-27T00:59:13.497Z,16.42
2023-02-27T01:01:42.151Z,16.40
2023-02-27T01:04:10.879Z,16.40
2023-02-27T01:06:39.586Z,16.40
2023-02-27T01:09:07.910Z,16.37
2023-02-27T01:11:36.559Z,16.37
2023-02-27T01:14:05.009Z,16.34
2023-02-27T01:16:33.695Z,16.35
2023-02-27T01:19:01.979Z,16.34
2023-02-27T01:21:30.544Z,16.33
2023-02-27T01:23:58.928Z,16.31
2023-02-27T01:26:27.502Z,16.30
2023-02-27T01:28:55.743Z,16.31
2023-02-27T01:31:24.638Z,16.30
2023-02-27T01:33:55.782Z,16.29
2023-02-27T01:36:24.470Z,16.22
2023-02-27T01:38:52.827Z,16.25
2023-02-27T01:41:21.890Z,16.24
2023-02-27T01:44:01.295Z,16.26
2023-02-27T01:46:31.375Z,16.24
2023-02-27T01:49:08.236Z,16.22
2023-02-27T01:51:40.771Z,16.19
2023-02-27T01:54:10.466Z,16.18
2023-02-27T01:56:39.102Z,16.20
2023-02-27T01:59:09.181Z,16.18
2023-02-27T02:01:39.297Z,16.17
2023-02-27T02:04:27.463Z,16.14
2023-02-27T02:07:09.451Z,16.13
2023-02-27T02:10:00.156Z,16.13
2023-02-27T02:12:35.510Z,16.12
2023-02-27T02:15:04.603Z,16.11
2023-02-27T02:17:57.082Z,16.10
2023-02-27T02:20:59.341Z,16.08
2023-02-27T02:24:05.100Z,16.08
2023-02-27T02:26:36.150Z,16.06
2023-02-27T02:29:26.352Z,16.06
2023-02-27T02:32:19.729Z,16.04
2023-02-27T02:34:57.613Z,16.03
2023-02-27T02:38:03.639Z,16.03
2023-02-27T02:40:38.883Z,16.00
2023-02-27T02:43:26.979Z,15.99
2023-02-27T02:46:10.656Z,15.98
2023-02-27T02:48:49.680Z,15.98
2023-02-27T02:51:28.181Z,15.97
2023-02-27T02:54:13.317Z,15.94
2023-02-27T02:56:52.616Z,15.94
2023-02-27T02:59:32.164Z,15.93
2023-02-27T03:02:08.174Z,15.93
2023-02-27T03:04:47.431Z,15.94
2023-02-27T03:07:51.483Z,15.90
2023-02-27T03:10:31.146Z,15.88
2023-02-27T03:13:04.075Z,15.87
2023-02-27T03:15:48.888Z,15.88
2023-02-27T03:18:22.689Z,15.86
2023-02-27T03:21:05.741Z,15.87
2023-02-27T03:23:45.134Z,15.87
2023-02-27T03:26:17.985Z,15.85
2023-02-27T03:29:02.088Z,15.84
2023-02-27T03:31:34.948Z,15.83
2023-02-27T03:34:13.254Z,15.83
2023-02-27T03:37:00.967Z,15.81
2023-02-27T03:39:45.720Z,15.82
2023-02-27T03:42:30.572Z,15.81
2023-02-27T03:45:34.256Z,15.80
2023-02-27T03:48:04.498Z,15.78
2023-02-27T03:50:34.951Z,15.78
2023-02-27T03:53:08.545Z,15.76
2023-02-27T03:55:40.838Z,15.76
2023-02-27T03:58:09.506Z,15.75
2023-02-27T04:00:38.169Z,15.73
2023-02-27T04:03:06.935Z,15.74
2023-02-27T04:05:35.835Z,15.73
2023-02-27T04:08:42.684Z,15.74
2023-02-27T04:11:14.106Z,15.72
2023-02-27T04:14:16.537Z,15.70
2023-02-27T04:17:15.305Z,15.70
2023-02-27T04:19:58.704Z,15.69
2023-02-27T04:22:39.094Z,15.69
2023-02-27T04:25:31.772Z,15.65
2023-02-27T04:28:17.858Z,15.64
2023-02-27T04:31:08.958Z,15.66
2023-02-27T04:33:45.434Z,15.66
2023-02-27T04:36:26.491Z,15.63
2023-02-27T04:39:02.615Z,15.64
2023-02-27T04:41:42.543Z,15.76
2023-02-27T04:44:12.342Z,15.75
2023-02-27T04:46:43.223Z,15.83
2023-02-27T04:49:19.784Z,15.91
2023-02-27T04:51:54.470Z,15.93
2023-02-27T04:54:57.949Z,16.05
2023-02-27T04:57:32.208Z,16.15
2023-02-27T05:00:06.571Z,16.24
2023-02-27T05:02:42.381Z,16.27
2023-02-27T05:05:17.343Z,16.38
2023-02-27T05:07:52.012Z,16.45
2023-02-27T05:10:34.856Z,16.52
2023-02-27T05:13:08.533Z,16.63
2023-02-27T05:15:47.571Z,16.59
2023-02-27T05:18:18.781Z,16.84
2023-02-27T05:21:16.882Z,16.87
2023-02-27T05:24:14.843Z,16.98
2023-02-27T05:27:05.431Z,17.02
2023-02-27T05:29:36.922Z,17.08
2023-02-27T05:32:15.439Z,17.17
2023-02-27T05:35:02.373Z,17.26
2023-02-27T05:37:54.364Z,17.32
2023-02-27T05:40:35.580Z,17.35
2023-02-27T05:43:37.923Z,17.45
2023-02-27T05:46:12.292Z,17.53
2023-02-27T05:48:55.269Z,17.61
2023-02-27T05:51:25.703Z,17.51
2023-02-27T05:53:59.649Z,17.63
2023-02-27T05:56:30.216Z,17.57
2023-02-27T05:59:17.821Z,17.53
2023-02-27T06:01:46.538Z,17.54
2023-02-27T06:04:15.582Z,17.45
2023-02-27T06:06:45.080Z,17.47
2023-02-27T06:09:13.626Z,17.35
2023-02-27T06:11:41.977Z,17.37
2023-02-27T06:14:10.529Z,17.36
2023-02-27T06:16:39.370Z,17.26
2023-02-27T06:19:07.990Z,17.25
2023-02-27T06:21:36.217Z,17.18
2023-02-27T06:24:04.902Z,17.18
2023-02-27T06:26:33.054Z,17.16
2023-02-27T06:29:01.584Z,17.15
2023-02-27T06:31:29.763Z,17.11
2023-02-27T06:33:58.321Z,17.02
2023-02-27T06:36:29.742Z,17.03
2023-02-27T06:38:58.771Z,17.02
2023-02-27T06:41:27.086Z,16.98
2023-02-27T06:43:56.949Z,16.94
2023-02-27T06:46:25.706Z,16.95
2023-02-27T06:48:54.586Z,16.90
2023-02-27T06:51:23.005Z,16.86
2023-02-27T06:53:51.844Z,16.84
2023-02-27T06:56:20.364Z,16.81
2023-02-27T06:58:49.110Z,16.80
2023-02-27T07:01:18.242Z,16.76
2023-02-27T07:03:47.085Z,16.73
2023-02-27T07:06:15.457Z,16.67
2023-02-27T07:09:01.145Z,16.68
2023-02-27T07:11:31.175Z,16.64
2023-02-27T07:13:59.893Z,16.63
2023-02-27T07:16:28.565Z,16.59
2023-02-27T07:18:57.744Z,16.61
2023-02-27T07:21:26.203Z,16.59
2023-02-27T07:23:54.766Z,16.60
2023-02-27T07:26:22.993Z,16.56
2023-02-27T07:28:51.562Z,16.52
2023-02-27T07:31:19.888Z,16.49
2023-02-27T07:33:48.876Z,16.47
2023-02-27T07:36:18.374Z,16.43
2023-02-27T07:38:47.400Z,16.41
2023-02-27T07:41:29.608Z,16.38
2023-02-27T07:44:01.469Z,16.39
2023-02-27T07:46:30.102Z,16.38
2023-02-27T07:48:58.888Z,16.29
2023-02-27T07:51:27.294Z,16.30
2023-02-27T07:53:59.186Z,16.30
2023-02-27T07:56:46.141Z,16.25
2023-02-27T07:59:14.703Z,16.25
2023-02-27T08:01:42.944Z,16.24
2023-02-27T08:04:11.523Z,16.22
2023-02-27T08:06:40.068Z,16.21
2023-02-27T08:09:08.948Z,16.20
2023-02-27T08:11:37.259Z,16.17
2023-02-27T08:14:05.948Z,16.14
2023-02-27T08:16:34.348Z,16.08
2023-02-27T08:19:03.350Z,16.11
2023-02-27T08:21:31.723Z,16.08
2023-02-27T08:24:00.349Z,16.08
2023-02-27T08:26:31.478Z,16.08
2023-02-27T08:29:00.219Z,16.05
2023-02-27T08:31:28.716Z,16.06
2023-02-27T08:34:09.565Z,16.05
2023-02-27T08:36:39.492Z,16.06
2023-02-27T08:39:09.247Z,16.06
2023-02-27T08:41:37.618Z,16.07
2023-02-27T08:44:06.358Z,16.06
2023-02-27T08:46:34.836Z,16.05
2023-02-27T08:49:03.675Z,16.01
2023-02-27T08:51:31.944Z,16.00
2023-02-27T08:54:00.601Z,15.99
2023-02-27T08:56:29.512Z,16.00
2023-02-27T08:58:58.309Z,15.97
2023-02-27T09:01:28.846Z,15.98
2023-02-27T09:03:57.800Z,15.99
2023-02-27T09:06:26.627Z,15.99
2023-02-27T09:08:55.125Z,15.99
2023-02-27T09:11:23.934Z,15.97
2023-02-27T09:13:53.017Z,16.00
2023-02-27T09:16:22.682Z,15.96
2023-02-27T09:18:51.469Z,15.95
2023-02-27T09:21:20.622Z,15.98
2023-02-27T09:23:48.895Z,15.96
2023-02-27T09:26:18.045Z,15.95
2023-02-27T09:28:46.355Z,15.92
2023-02-27T09:31:15.313Z,15.92
2023-02-27T09:33:44.661Z,15.93
2023-02-27T09:36:13.525Z,15.92
2023-02-27T09:38:42.228Z,15.92
2023-02-27T09:41:48.555Z,15.91
2023-02-27T09:44:46.701Z,15.91
2023-02-27T09:47:20.956Z,15.88
2023-02-27T09:49:59.449Z,15.92
2023-02-27T09:52:30.366Z,15.90
2023-02-27T09:54:59.267Z,15.87
2023-02-27T09:57:48.007Z,15.90
2023-02-27T10:00:51.438Z,15.89
2023-02-27T10:03:30.296Z,15.89
2023-02-27T10:06:06.270Z,15.89
2023-02-27T10:08:41.927Z,15.87
2023-02-27T10:11:13.996Z,15.91
2023-02-27T10:14:15.418Z,15.90
2023-02-27T10:16:44.007Z,15.89
2023-02-27T10:19:19.637Z,15.88
2023-02-27T10:21:50.919Z,15.90
2023-02-27T10:24:33.609Z,15.91
2023-02-27T10:27:03.300Z,15.92
2023-02-27T10:29:37.052Z,15.93
2023-02-27T10:32:44.164Z,15.91
2023-02-27T10:35:28.291Z,15.85
2023-02-27T10:38:01.928Z,15.96
2023-02-27T10:40:31.351Z,16.04
2023-02-27T10:43:01.702Z,16.11
2023-02-27T10:45:31.281Z,16.20
2023-02-27T10:48:02.010Z,16.26
2023-02-27T10:50:39.624Z,16.31
2023-02-27T10:53:19.026Z,16.43
2023-02-27T10:56:03.482Z,16.51
2023-02-27T10:58:35.529Z,16.64
2023-02-27T11:01:07.445Z,16.73
2023-02-27T11:03:42.047Z,16.74
2023-02-27T11:06:26.255Z,16.87
2023-02-27T11:09:32.752Z,17.03
2023-02-27T11:12:26.177Z,17.10
2023-02-27T11:14:59.877Z,17.23
2023-02-27T11:17:34.351Z,17.31
2023-02-27T11:20:07.622Z,17.29
2023-02-27T11:22:36.214Z,17.49
2023-02-27T11:25:30.742Z,17.56
2023-02-27T11:28:20.557Z,17.60
2023-02-27T11:31:04.418Z,17.64
2023-02-27T11:33:40.245Z,17.70
2023-02-27T11:36:09.387Z,17.83
2023-02-27T11:38:38.213Z,17.83
2023-02-27T11:41:07.761Z,17.89
2023-02-27T11:43:48.425Z,17.89
2023-02-27T11:46:45.126Z,17.93
2023-02-27T11:49:22.679Z,17.91
2023-02-27T11:52:18.006Z,17.86
2023-02-27T11:54:58.419Z,17.85
2023-02-27T11:57:35.820Z,17.82
2023-02-27T12:00:23.251Z,17.82
2023-02-27T12:03:17.555Z,17.83
2023-02-27T12:05:55.756Z,17.80
2023-02-27T12:08:34.880Z,17.76
2023-02-27T12:11:28.545Z,17.73
2023-02-27T12:14:08.844Z,17.74
2023-02-27T12:16:44.263Z,17.67
2023-02-27T12:19:18.992Z,17.62
2023-02-27T12:21:54.776Z,17.62
2023-02-27T12:24:28.108Z,17.59
2023-02-27T12:27:06.669Z,17.55
2023-02-27T12:30:02.919Z,17.52
2023-02-27T12:32:50.092Z,17.48
2023-02-27T12:35:27.853Z,17.48
2023-02-27T12:37:58.556Z,17.42
2023-02-27T12:40:40.275Z,17.26
2023-02-27T12:43:39.042Z,17.30
2023-02-27T12:46:50.446Z,17.31
2023-02-27T12:49:40.502Z,17.31
2023-02-27T12:52:20.806Z,17.26
2023-02-27T12:55:24.170Z,17.27
2023-02-27T12:58:17.264Z,17.25
2023-02-27T13:00:53.048Z,17.22
2023-02-27T13:03:25.353Z,17.19
2023-02-27T13:06:00.262Z,17.16
2023-02-27T13:09:05.285Z,17.15
2023-02-27T13:12:12.716Z,17.13
2023-02-27T13:14:57.597Z,17.09
2023-02-27T13:17:39.067Z,17.08
2023-02-27T13:20:25.932Z,17.05
2023-02-27T13:23:49.781Z,17.05
2023-02-27T13:26:30.956Z,17.00
2023-02-27T13:29:01.200Z,16.93
2023-02-27T13:32:18.514Z,16.93
2023-02-27T13:34:54.973Z,16.91
2023-02-27T13:37:23.554Z,16.89
2023-02-27T13:39:56.605Z,16.92
2023-02-27T13:42:27.766Z,16.90
2023-02-27T13:44:57.429Z,16.87
2023-02-27T13:47:59.000Z,16.84
2023-02-27T13:50:27.570Z,16.82
2023-02-27T13:52:56.179Z,16.80
2023-02-27T13:55:37.124Z,16.80
2023-02-27T13:58:05.997Z,16.76
2023-02-27T14:00:38.131Z,16.70
2023-02-27T14:03:20.309Z,16.65
2023-02-27T14:05:52.318Z,16.64
2023-02-27T14:08:49.909Z,16.63
2023-02-27T14:11:26.701Z,16.62
2023-02-27T14:13:57.790Z,16.58
2023-02-27T14:16:38.453Z,16.58
2023-02-27T14:19:15.626Z,16.58
2023-02-27T14:22:13.808Z,16.56
2023-02-27T14:25:02.532Z,16.49
2023-02-27T14:27:55.264Z,16.51
2023-02-27T14:31:06.139Z,16.51
2023-02-27T14:33:42.675Z,16.48
2023-02-27T14:36:26.676Z,16.44
2023-02-27T14:39:00.998Z,16.44
2023-02-27T14:41:44.997Z,16.45
2023-02-27T14:44:25.262Z,16.44
2023-02-27T14:46:55.307Z,16.43
2023-02-27T14:49:28.964Z,16.42
2023-02-27T14:51:58.075Z,16.40
2023-02-27T14:54:28.006Z,16.40
2023-02-27T14:57:04.752Z,16.37
2023-02-27T14:59:41.815Z,16.38
2023-02-27T15:02:17.635Z,16.36
2023-02-27T15:04:47.039Z,16.35
2023-02-27T15:07:27.031Z,16.34
2023-02-27T15:10:00.278Z,16.38
2023-02-27T15:12:29.531Z,16.33
2023-02-27T15:15:00.076Z,16.34
2023-02-27T15:17:38.413Z,16.30
2023-02-27T15:20:36.514Z,16.30
2023-02-27T15:23:24.386Z,16.23
2023-02-27T15:25:59.595Z,16.24
2023-02-27T15:28:33.294Z,16.21
2023-02-27T15:31:02.034Z,16.18
2023-02-27T15:33:32.729Z,16.16
2023-02-27T15:36:01.956Z,16.13
2023-02-27T15:38:32.834Z,16.17
2023-02-27T15:41:03.069Z,16.13
2023-02-27T15:43:31.783Z,16.12
2023-02-27T15:46:00.637Z,16.12
2023-02-27T15:48:30.104Z,16.09
2023-02-27T15:51:01.287Z,16.10
2023-02-27T15:53:31.077Z,16.10
2023-02-27T15:56:01.781Z,16.07
2023-02-27T15:58:32.707Z,16.05
2023-02-27T16:01:22.013Z,16.04
2023-02-27T16:03:55.308Z,16.02
2023-02-27T16:06:23.912Z,16.07
2023-02-27T16:08:59.306Z,16.11
2023-02-27T16:11:31.149Z,16.18
2023-02-27T16:13:59.983Z,16.21
2023-02-27T16:16:35.613Z,16.28
2023-02-27T16:19:17.050Z,16.38
2023-02-27T16:22:06.812Z,16.43
2023-02-27T16:24:35.039Z,16.45
2023-02-27T16:27:04.177Z,16.61
2023-02-27T16:29:40.727Z,16.68
2023-02-27T16:32:23.014Z,16.75
2023-02-27T16:34:52.281Z,16.93
2023-02-27T16:37:21.217Z,17.01
2023-02-27T16:39:54.639Z,17.03
2023-02-27T16:42:24.212Z,17.08
2023-02-27T16:44:52.424Z,17.05
2023-02-27T16:47:20.917Z,17.24
2023-02-27T16:49:49.668Z,17.44
2023-02-27T16:52:18.299Z,17.44
2023-02-27T16:54:46.565Z,17.49
2023-02-27T16:57:16.853Z,17.57
2023-02-27T16:59:45.190Z,17.74
2023-02-27T17:02:15.135Z,17.81
2023-02-27T17:04:44.531Z,17.90
2023-02-27T17:07:16.006Z,17.85
2023-02-27T17:09:45.690Z,18.02
2023-02-27T17:12:14.603Z,17.97
2023-02-27T17:14:42.944Z,17.96
2023-02-27T17:17:12.143Z,18.20
2023-02-27T17:19:40.481Z,18.09
2023-02-27T17:22:09.082Z,18.23
2023-02-27T17:24:38.120Z,18.15
2023-02-27T17:27:07.052Z,18.31
2023-02-27T17:29:37.927Z,18.41
2023-02-27T17:32:06.895Z,18.38
2023-02-27T17:34:35.169Z,18.34
2023-02-27T17:37:04.155Z,18.44
2023-02-27T17:39:33.706Z,18.61
2023-02-27T17:42:02.594Z,18.54
2023-02-27T17:44:30.833Z,18.71
2023-02-27T17:46:59.326Z,18.70
2023-02-27T17:49:27.672Z,18.92
2023-02-27T17:51:58.750Z,18.98
2023-02-27T17:54:27.143Z,18.91
2023-02-27T17:56:55.850Z,19.02
2023-02-27T17:59:24.009Z,18.98
2023-02-27T18:01:55.446Z,19.02
2023-02-27T18:04:24.144Z,18.95
2023-02-27T18:06:52.976Z,18.96
2023-02-27T18:09:21.469Z,18.97
2023-02-27T18:11:50.629Z,18.92
2023-02-27T18:14:18.990Z,18.87
2023-02-27T18:16:47.809Z,18.85
2023-02-27T18:19:16.442Z,18.68
2023-02-27T18:21:48.478Z,18.66
2023-02-27T18:24:17.211Z,18.65
2023-02-27T18:26:45.883Z,18.53
2023-02-27T18:29:14.687Z,18.47
2023-02-27T18:31:50.353Z,18.46
2023-02-27T18:34:18.897Z,18.40
2023-02-27T18:36:48.011Z,18.32
2023-02-27T18:39:16.285Z,18.29
2023-02-27T18:41:44.896Z,18.23
2023-02-27T18:44:13.235Z,18.22
2023-02-27T18:46:42.902Z,18.21
2023-02-27T18:49:11.115Z,18.14
2023-02-27T18:51:39.657Z,18.12
2023-02-27T18:54:07.962Z,18.08
2023-02-27T18:56:36.531Z,18.05
2023-02-27T18:59:05.731Z,18.00
2023-02-27T19:01:36.968Z,17.94
2023-02-27T19:04:07.465Z,17.94
2023-02-27T19:06:40.842Z,18.00
2023-02-27T19:09:12.608Z,18.06
2023-02-27T19:11:41.444Z,18.10
2023-02-27T19:14:12.078Z,18.27
2023-02-27T19:16:40.792Z,18.29
2023-02-27T19:19:10.076Z,18.33
2023-02-27T19:21:38.932Z,18.36
2023-02-27T19:24:08.496Z,18.38
2023-02-27T19:26:37.295Z,18.49
2023-02-27T19:29:07.592Z,18.46
2023-02-27T19:31:36.232Z,18.51
2023-02-27T19:34:05.244Z,18.51
2023-02-27T19:36:34.988Z,18.60
2023-02-27T19:39:04.388Z,18.61
2023-02-27T19:41:33.721Z,18.52
2023-02-27T19:44:02.169Z,18.51
2023-02-27T19:46:33.818Z,18.46
2023-02-27T19:49:06.362Z,18.42
2023-02-27T19:51:35.133Z,18.35
2023-02-27T19:54:03.732Z,18.35
2023-02-27T19:56:32.886Z,18.36
2023-02-27T19:59:01.966Z,18.34
2023-02-27T20:01:36.353Z,18.28
2023-02-27T20:04:06.565Z,18.27
2023-02-27T20:06:42.220Z,18.15
2023-02-27T20:09:15.593Z,18.14
2023-02-27T20:11:45.694Z,18.12
2023-02-27T20:14:15.928Z,18.12
2023-02-27T20:16:45.289Z,18.09
2023-02-27T20:19:16.820Z,18.02
2023-02-27T20:21:46.641Z,18.04
2023-02-27T20:24:18.358Z,18.01
2023-02-27T20:26:49.676Z,17.98
2023-02-27T20:29:23.630Z,17.97
2023-02-27T20:31:54.283Z,17.96
2023-02-27T20:34:26.609Z,17.92
2023-02-27T20:36:56.447Z,17.94
2023-02-27T20:39:25.681Z,18.00
2023-02-27T20:41:55.242Z,18.02
2023-02-27T20:44:24.017Z,18.14
2023-02-27T20:46:53.135Z,18.22
2023-02-27T20:49:23.056Z,18.27
2023-02-27T20:51:51.980Z,18.35
2023-02-27T20:54:20.951Z,18.49
2023-02-27T20:56:58.002Z,18.56
2023-02-27T20:59:27.490Z,18.58
2023-02-27T21:01:56.928Z,18.56
2023-02-27T21:04:43.767Z,18.52
2023-02-27T21:07:14.650Z,18.47
2023-02-27T21:09:43.694Z,18.44
2023-02-27T21:12:12.890Z,18.43
2023-02-27T21:14:44.351Z,18.33
2023-02-27T21:17:14.035Z,18.34
2023-02-27T21:19:42.703Z,18.25
2023-02-27T21:22:11.663Z,18.23
2023-02-27T21:24:40.273Z,18.17
2023-02-27T21:27:09.540Z,18.12
2023-02-27T21:29:39.295Z,18.08
2023-02-27T21:32:08.394Z,18.05
2023-02-27T21:34:36.997Z,18.00
2023-02-27T21:37:07.632Z,17.95
2023-02-27T21:39:36.301Z,17.91
2023-02-27T21:42:05.738Z,17.88
2023-02-27T21:44:34.483Z,17.85
2023-02-27T21:47:10.386Z,17.83
2023-02-27T21:49:39.664Z,17.82
2023-02-27T21:52:08.629Z,17.81
2023-02-27T21:54:37.803Z,17.88
2023-02-27T21:57:07.142Z,17.87
2023-02-27T21:59:35.852Z,17.94
2023-02-27T22:02:05.156Z,18.07
2023-02-27T22:04:33.681Z,18.16
2023-02-27T22:07:02.992Z,18.12
2023-02-27T22:09:31.543Z,18.13
2023-02-27T22:12:00.510Z,18.12
2023-02-27T22:14:29.033Z,18.12
2023-02-27T22:16:58.536Z,18.04
2023-02-27T22:19:27.044Z,18.03
2023-02-27T22:21:55.920Z,17.97
2023-02-27T22:24:24.461Z,17.95
2023-02-27T22:26:53.663Z,17.90
2023-02-27T22:29:22.294Z,17.86
2023-02-27T22:31:51.309Z,17.79
2023-02-27T22:34:20.053Z,17.78
2023-02-27T22:36:52.825Z,17.72
2023-02-27T22:39:21.757Z,17.69
2023-02-27T22:41:50.914Z,17.65
2023-02-27T22:44:19.772Z,17.60
2023-02-27T22:46:50.145Z,17.58
2023-02-27T22:49:23.531Z,17.52
2023-02-27T22:51:52.901Z,17.49
2023-02-27T22:54:22.871Z,17.45
2023-02-27T22:56:53.528Z,17.45
2023-02-27T22:59:22.696Z,17.40
2023-02-27T23:01:52.422Z,17.38
2023-02-27T23:04:22.722Z,17.35
2023-02-27T23:06:52.963Z,17.32
2023-02-27T23:09:24.672Z,17.30
2023-02-27T23:11:54.581Z,17.26
2023-02-27T23:14:23.333Z,17.23
2023-02-27T23:16:52.402Z,17.22
2023-02-27T23:19:21.951Z,17.19
2023-02-27T23:21:50.861Z,17.15
2023-02-27T23:24:20.341Z,17.13
2023-02-27T23:26:51.209Z,17.11
2023-02-27T23:29:20.310Z,17.09
2023-02-27T23:31:49.696Z,17.05
2023-02-27T23:34:18.346Z,17.02
2023-02-27T23:36:47.264Z,17.01
2023-02-27T23:39:15.755Z,17.00
2023-02-27T23:41:44.624Z,16.98
2023-02-27T23:44:13.130Z,16.95
2023-02-27T23:46:42.044Z,16.94
2023-02-27T23:49:11.089Z,16.91
2023-02-27T23:51:40.336Z,16.88
2023-02-27T23:54:08.951Z,16.85
2023-02-27T23:56:38.063Z,16.85
2023-02-27T23:59:07.333Z,16.84
